createdAt,value
2018-08-07T00:02:09.439Z,99765.52
2018-08-07T00:04:40.009Z,99774.23
2018-08-07T00:07:10.513Z,99775.23
2018-08-07T00:09:41.067Z,99775.41
2018-08-07T00:12:11.699Z,99772.47
2018-08-07T00:14:42.228Z,99770.52
2018-08-07T00:17:12.747Z,99772.98
2018-08-07T00:19:43.207Z,99765.72
2018-08-07T00:22:13.609Z,99765.97
2018-08-07T00:24:44.063Z,99765.88
2018-08-07T00:27:14.498Z,99769.77
2018-08-07T00:29:44.940Z,99767.91
2018-08-07T00:32:15.458Z,99770.36
2018-08-07T00:34:45.850Z,99773.98
2018-08-07T00:37:16.338Z,99775.10
2018-08-07T00:39:46.829Z,99769.64
2018-08-07T00:42:17.299Z,99765.24
2018-08-07T00:44:47.759Z,99771.93
2018-08-07T00:47:18.200Z,99771.66
2018-08-07T00:49:48.671Z,99767.69
2018-08-07T00:52:19.103Z,99771.06
2018-08-07T00:54:49.564Z,99760.91
2018-08-07T00:57:20.108Z,99758.86
2018-08-07T00:59:50.639Z,99762.41
2018-08-07T01:02:21.077Z,99763.82
2018-08-07T01:04:51.523Z,99766.09
2018-08-07T01:07:22.023Z,99769.77
2018-08-07T01:09:52.459Z,99768.30
2018-08-07T01:12:22.912Z,99767.02
2018-08-07T01:14:53.380Z,99768.48
2018-08-07T01:17:23.802Z,99758.88
2018-08-07T01:19:54.393Z,99757.50
2018-08-07T01:22:24.859Z,99759.02
2018-08-07T01:24:55.336Z,99761.55
2018-08-07T01:27:25.885Z,99757.48
2018-08-07T01:29:56.351Z,99759.31
2018-08-07T01:32:26.904Z,99759.70
2018-08-07T01:34:57.380Z,99758.67
2018-08-07T01:37:27.872Z,99759.77
2018-08-07T01:39:58.299Z,99755.13
2018-08-07T01:42:28.774Z,99761.56
2018-08-07T01:44:59.252Z,99761.45
2018-08-07T01:47:29.670Z,99762.25
2018-08-07T01:50:00.098Z,99758.80
2018-08-07T01:52:30.740Z,99762.78
2018-08-07T01:55:01.175Z,99755.80
2018-08-07T01:57:31.715Z,99767.47
2018-08-07T02:00:02.203Z,99762.94
2018-08-07T02:02:32.796Z,99761.75
2018-08-07T02:05:03.251Z,99764.20
2018-08-07T02:07:33.737Z,99760.37
2018-08-07T02:10:04.367Z,99759.56
2018-08-07T02:12:34.764Z,99757.91
2018-08-07T02:15:06.072Z,99759.06
2018-08-07T02:17:36.519Z,99761.25
2018-08-07T02:20:09.319Z,99763.28
2018-08-07T02:22:40.442Z,99760.45
2018-08-07T02:25:19.495Z,99764.33
2018-08-07T02:27:49.972Z,99761.06
2018-08-07T02:30:20.381Z,99766.09
2018-08-07T02:32:50.920Z,99770.27
2018-08-07T02:35:21.397Z,99769.16
2018-08-07T02:37:51.875Z,99776.87
2018-08-07T02:40:22.339Z,99776.52
2018-08-07T02:42:52.775Z,99775.56
2018-08-07T02:45:23.283Z,99773.56
2018-08-07T02:47:53.815Z,99775.56
2018-08-07T02:50:24.246Z,99772.37
2018-08-07T02:52:54.768Z,99771.41
2018-08-07T02:55:25.155Z,99772.56
2018-08-07T02:57:55.680Z,99778.97
2018-08-07T03:00:26.301Z,99773.17
2018-08-07T03:02:56.776Z,99780.34
2018-08-07T03:05:27.212Z,99775.70
2018-08-07T03:07:57.756Z,99775.20
2018-08-07T03:10:28.157Z,99777.84
2018-08-07T03:12:58.619Z,99778.65
2018-08-07T03:15:29.195Z,99778.27
2018-08-07T03:17:59.688Z,99780.53
2018-08-07T03:20:30.268Z,99782.48
2018-08-07T03:23:00.680Z,99778.72
2018-08-07T03:25:31.196Z,99785.93
2018-08-07T03:28:01.711Z,99781.06
2018-08-07T03:30:32.149Z,99785.34
2018-08-07T03:33:02.695Z,99785.64
2018-08-07T03:35:33.220Z,99798.27
2018-08-07T03:38:03.727Z,99789.11
2018-08-07T03:40:34.150Z,99792.75
2018-08-07T03:43:04.692Z,99792.11
2018-08-07T03:45:35.168Z,99789.75
2018-08-07T03:48:05.876Z,99787.49
2018-08-07T03:50:36.355Z,99786.70
2018-08-07T03:53:06.967Z,99786.36
2018-08-07T03:55:37.411Z,99785.73
2018-08-07T03:58:07.971Z,99781.09
2018-08-07T04:00:43.538Z,99779.44
2018-08-07T04:03:14.104Z,99784.70
2018-08-07T04:05:44.680Z,99787.69
2018-08-07T04:08:15.248Z,99784.23
2018-08-07T04:10:45.714Z,99785.39
2018-08-07T04:13:16.292Z,99784.52
2018-08-07T04:15:46.719Z,99784.88
2018-08-07T04:18:17.296Z,99787.06
2018-08-07T04:20:47.763Z,99782.84
2018-08-07T04:23:18.182Z,99786.58
2018-08-07T04:25:48.612Z,99784.52
2018-08-07T04:28:19.028Z,99793.09
2018-08-07T04:30:49.473Z,99789.50
2018-08-07T04:33:19.907Z,99786.65
2018-08-07T04:35:50.422Z,99794.37
2018-08-07T04:38:20.924Z,99793.19
2018-08-07T04:40:51.356Z,99792.65
2018-08-07T04:43:21.798Z,99794.97
2018-08-07T04:45:52.245Z,99792.58
2018-08-07T04:48:22.745Z,99799.24
2018-08-07T04:50:53.254Z,99801.44
2018-08-07T04:53:23.863Z,99799.11
2018-08-07T04:55:54.291Z,99804.61
2018-08-07T04:58:24.764Z,99802.73
2018-08-07T05:00:57.768Z,99807.03
2018-08-07T05:03:28.227Z,99821.33
2018-08-07T05:05:58.747Z,99819.14
2018-08-07T05:08:29.312Z,99818.12
2018-08-07T05:10:59.838Z,99818.72
2018-08-07T05:13:31.191Z,99820.77
2018-08-07T05:16:01.649Z,99819.67
2018-08-07T05:18:32.262Z,99832.56
2018-08-07T05:21:02.719Z,99826.31
2018-08-07T05:23:33.339Z,99828.90
2018-08-07T05:26:03.887Z,99832.97
2018-08-07T05:28:34.513Z,99832.91
2018-08-07T05:31:05.025Z,99831.48
2018-08-07T05:33:35.666Z,99831.02
2018-08-07T05:36:06.208Z,99836.37
2018-08-07T05:38:36.791Z,99841.40
2018-08-07T05:41:07.305Z,99839.67
2018-08-07T05:43:37.735Z,99838.03
2018-08-07T05:46:08.227Z,99840.56
2018-08-07T05:48:38.839Z,99840.55
2018-08-07T05:51:09.745Z,99839.77
2018-08-07T05:53:39.825Z,99833.13
2018-08-07T05:56:10.336Z,99835.17
2018-08-07T05:58:40.753Z,99840.02
2018-08-07T06:01:11.343Z,99838.04
2018-08-07T06:03:41.905Z,99843.66
2018-08-07T06:06:12.468Z,99843.80
2018-08-07T06:08:42.919Z,99849.10
2018-08-07T06:11:13.540Z,99850.81
2018-08-07T06:13:44.051Z,99845.12
2018-08-07T06:16:14.724Z,99751.47
2018-08-07T06:18:45.201Z,99848.01
2018-08-07T06:21:15.723Z,99836.59
2018-08-07T06:23:46.376Z,99835.83
2018-08-07T06:26:16.943Z,99746.87
2018-08-07T06:28:47.495Z,99837.09
2018-08-07T06:31:18.116Z,99844.17
2018-08-07T06:33:49.650Z,99850.03
2018-08-07T06:36:20.280Z,99846.31
2018-08-07T06:38:50.920Z,99840.55
2018-08-07T06:41:21.617Z,99842.03
2018-08-07T06:43:52.055Z,99843.20
2018-08-07T06:46:22.601Z,99842.63
2018-08-07T06:48:53.205Z,99832.68
2018-08-07T06:51:23.828Z,99841.13
2018-08-07T06:53:54.340Z,99840.82
2018-08-07T06:56:24.802Z,99838.69
2018-08-07T06:58:55.327Z,99835.22
2018-08-07T07:01:25.856Z,99838.00
2018-08-07T07:03:56.389Z,99837.97
2018-08-07T07:06:26.845Z,99838.16
2018-08-07T07:08:57.479Z,99836.77
2018-08-07T07:11:28.123Z,99837.03
2018-08-07T07:13:59.067Z,99843.70
2018-08-07T07:16:29.598Z,99844.30
2018-08-07T07:19:00.143Z,99839.13
2018-08-07T07:21:30.659Z,99752.70
2018-08-07T07:24:01.195Z,99837.20
2018-08-07T07:26:31.816Z,99845.23
2018-08-07T07:29:02.489Z,99834.89
2018-08-07T07:31:32.948Z,99840.80
2018-08-07T07:34:03.450Z,99840.25
2018-08-07T07:36:34.002Z,99843.55
2018-08-07T07:39:06.116Z,99839.35
2018-08-07T07:41:36.597Z,99838.16
2018-08-07T07:44:07.120Z,99840.55
2018-08-07T07:46:37.691Z,99840.80
2018-08-07T07:49:08.199Z,99845.06
2018-08-07T07:51:38.754Z,99843.20
2018-08-07T07:54:09.443Z,99845.20
2018-08-07T07:56:39.927Z,99755.09
2018-08-07T07:59:10.476Z,99843.66
2018-08-07T08:01:40.939Z,99845.44
2018-08-07T08:04:11.507Z,99839.57
2018-08-07T08:06:41.935Z,99838.85
2018-08-07T08:09:12.497Z,99832.09
2018-08-07T08:11:42.975Z,99840.48
2018-08-07T08:14:13.550Z,99843.86
2018-08-07T08:16:44.285Z,99837.99
2018-08-07T08:19:14.771Z,99833.09
2018-08-07T08:21:45.392Z,99834.77
2018-08-07T08:24:16.594Z,99833.06
2018-08-07T08:26:47.164Z,99826.41
2018-08-07T08:29:17.715Z,99821.05
2018-08-07T08:31:48.293Z,99820.64
2018-08-07T08:34:19.431Z,99821.62
2018-08-07T08:36:50.252Z,99817.39
2018-08-07T08:39:20.884Z,99823.76
2018-08-07T08:41:51.580Z,99814.31
2018-08-07T08:44:22.072Z,99820.39
2018-08-07T08:46:52.663Z,99815.98
2018-08-07T08:49:23.315Z,99828.70
2018-08-07T08:51:53.939Z,99818.14
2018-08-07T08:54:24.543Z,99818.30
2018-08-07T08:56:55.076Z,99815.78
2018-08-07T08:59:25.732Z,99814.13
2018-08-07T09:01:56.428Z,99803.91
2018-08-07T09:04:27.040Z,99807.38
2018-08-07T09:06:57.700Z,99804.80
2018-08-07T09:09:28.189Z,99805.77
2018-08-07T09:11:58.805Z,99806.14
2018-08-07T09:14:29.384Z,99804.47
2018-08-07T09:17:00.387Z,99809.44
2018-08-07T09:19:30.979Z,99805.45
2018-08-07T09:22:01.639Z,99814.84
2018-08-07T09:24:32.122Z,99805.28
2018-08-07T09:27:02.697Z,99799.09
2018-08-07T09:29:33.110Z,99799.67
2018-08-07T09:32:03.629Z,99803.30
2018-08-07T09:34:34.077Z,99800.52
2018-08-07T09:37:04.599Z,99796.16
2018-08-07T09:39:35.137Z,99803.09
2018-08-07T09:42:05.643Z,99795.33
2018-08-07T09:44:36.363Z,99800.23
2018-08-07T09:47:06.908Z,99791.42
2018-08-07T09:49:37.540Z,99792.16
2018-08-07T09:52:08.146Z,99790.68
2018-08-07T09:54:38.650Z,99784.20
2018-08-07T09:57:09.150Z,99784.62
2018-08-07T09:59:39.874Z,99786.30
2018-08-07T10:02:15.508Z,99785.86
2018-08-07T10:04:46.023Z,99785.44
2018-08-07T10:07:17.419Z,99786.27
2018-08-07T10:09:47.897Z,99781.16
2018-08-07T10:12:18.398Z,99774.09
2018-08-07T10:14:48.891Z,99773.55
2018-08-07T10:17:19.372Z,99761.98
2018-08-07T10:19:49.871Z,99762.24
2018-08-07T10:22:20.317Z,99756.34
2018-08-07T10:24:50.842Z,99762.63
2018-08-07T10:27:21.350Z,99756.72
2018-08-07T10:29:51.855Z,99750.37
2018-08-07T10:32:22.308Z,99745.14
2018-08-07T10:34:52.839Z,99749.56
2018-08-07T10:37:23.390Z,99744.91
2018-08-07T10:39:53.993Z,99745.95
2018-08-07T10:42:24.571Z,99741.48
2018-08-07T10:44:55.262Z,99733.48
2018-08-07T10:47:25.861Z,99729.27
2018-08-07T10:49:56.445Z,99730.09
2018-08-07T10:52:26.982Z,99725.05
2018-08-07T10:54:57.889Z,99726.05
2018-08-07T10:57:28.792Z,99719.05
2018-08-07T10:59:59.371Z,99714.00
2018-08-07T11:02:30.027Z,99707.96
2018-08-07T11:05:00.555Z,99701.34
2018-08-07T11:07:31.216Z,99699.70
2018-08-07T11:10:02.152Z,99699.49
2018-08-07T11:12:32.632Z,99695.27
2018-08-07T11:15:03.236Z,99696.50
2018-08-07T11:17:33.812Z,99695.89
2018-08-07T11:20:04.681Z,99697.28
2018-08-07T11:22:35.456Z,99599.39
2018-08-07T11:25:06.271Z,99697.71
2018-08-07T11:27:36.894Z,99698.11
2018-08-07T11:30:10.376Z,99696.09
2018-08-07T11:32:40.907Z,99692.47
2018-08-07T11:35:11.619Z,99697.50
2018-08-07T11:37:42.727Z,99700.47
2018-08-07T11:40:15.488Z,99698.88
2018-08-07T11:42:47.223Z,99698.27
2018-08-07T11:45:19.075Z,99693.64
2018-08-07T11:47:49.703Z,99692.05
2018-08-07T11:50:23.396Z,99687.21
2018-08-07T11:52:54.077Z,99684.00
2018-08-07T11:55:25.298Z,99683.23
2018-08-07T11:57:57.231Z,99677.77
2018-08-07T12:00:37.212Z,99669.36
2018-08-07T12:03:09.228Z,99668.73
2018-08-07T12:05:39.862Z,99670.55
2018-08-07T12:08:10.504Z,99660.08
2018-08-07T12:10:41.014Z,99655.86
2018-08-07T12:13:11.543Z,99653.25
2018-08-07T12:15:42.105Z,99647.41
2018-08-07T12:18:12.641Z,99645.41
2018-08-07T12:20:43.199Z,99574.87
2018-08-07T12:23:13.659Z,99641.38
2018-08-07T12:25:44.119Z,99644.77
2018-08-07T12:28:14.643Z,99639.14
2018-08-07T12:30:46.600Z,99640.51
2018-08-07T12:33:17.235Z,99638.95
2018-08-07T12:35:47.931Z,99636.72
2018-08-07T12:38:18.427Z,99634.03
2018-08-07T12:40:48.984Z,99630.99
2018-08-07T12:43:19.479Z,99625.36
2018-08-07T12:45:50.068Z,99631.81
2018-08-07T12:48:20.499Z,99622.96
2018-08-07T12:50:51.093Z,99624.72
2018-08-07T12:53:21.721Z,99625.06
2018-08-07T12:55:52.323Z,99621.73
2018-08-07T12:58:22.875Z,99619.25
2018-08-07T13:00:53.625Z,99620.75
2018-08-07T13:03:24.232Z,99615.08
2018-08-07T13:05:55.021Z,99612.14
2018-08-07T13:08:25.609Z,99618.49
2018-08-07T13:10:56.382Z,99617.52
2018-08-07T13:13:26.863Z,99618.55
2018-08-07T13:15:57.435Z,99617.48
2018-08-07T13:18:27.929Z,99614.01
2018-08-07T13:20:58.603Z,99613.19
2018-08-07T13:23:29.232Z,99612.22
2018-08-07T13:25:59.806Z,99613.29
2018-08-07T13:28:30.475Z,99617.30
2018-08-07T13:31:01.109Z,99616.91
2018-08-07T13:33:31.664Z,99610.36
2018-08-07T13:36:02.203Z,99612.06
2018-08-07T13:38:32.863Z,99611.63
2018-08-07T13:41:03.362Z,99611.92
2018-08-07T13:43:33.821Z,99612.39
2018-08-07T13:46:04.427Z,99610.66
2018-08-07T13:48:34.984Z,99605.95
2018-08-07T13:51:05.703Z,99607.34
2018-08-07T13:53:36.318Z,99604.37
2018-08-07T13:56:07.865Z,99606.03
2018-08-07T13:58:38.582Z,99601.80
2018-08-07T14:01:09.475Z,99601.34
2018-08-07T14:03:40.014Z,99598.87
2018-08-07T14:06:10.645Z,99595.38
2018-08-07T14:08:41.246Z,99604.39
2018-08-07T14:11:11.862Z,99621.38
2018-08-07T14:13:42.385Z,99608.97
2018-08-07T14:16:12.868Z,99613.88
2018-08-07T14:18:43.422Z,99616.95
2018-08-07T14:21:13.963Z,99613.79
2018-08-07T14:23:44.464Z,99603.97
2018-08-07T14:26:15.136Z,99601.39
2018-08-07T14:28:45.670Z,99608.21
2018-08-07T14:31:16.284Z,99604.20
2018-08-07T14:33:46.983Z,99604.83
2018-08-07T14:36:17.458Z,99516.56
2018-08-07T14:38:47.892Z,99601.60
2018-08-07T14:41:18.342Z,99604.39
2018-08-07T14:43:48.787Z,99598.38
2018-08-07T14:46:19.348Z,99595.55
2018-08-07T14:48:49.840Z,99595.54
2018-08-07T14:51:20.540Z,99602.98
2018-08-07T14:53:50.946Z,99602.38
2018-08-07T14:56:21.448Z,99610.77
2018-08-07T14:58:51.922Z,99617.20
2018-08-07T15:01:22.439Z,99610.56
2018-08-07T15:03:52.916Z,99515.44
2018-08-07T15:06:23.581Z,99607.53
2018-08-07T15:08:54.137Z,99607.10
2018-08-07T15:11:24.687Z,99605.70
2018-08-07T15:13:55.323Z,99602.09
2018-08-07T15:16:25.832Z,99607.07
2018-08-07T15:18:56.231Z,99612.99
2018-08-07T15:21:26.739Z,99610.17
2018-08-07T15:23:57.127Z,99524.20
2018-08-07T15:26:27.591Z,99620.53
2018-08-07T15:28:58.115Z,99618.50
2018-08-07T15:31:28.599Z,99614.45
2018-08-07T15:33:59.048Z,99610.02
2018-08-07T15:36:29.543Z,99614.45
2018-08-07T15:39:00.036Z,99617.67
2018-08-07T15:41:30.430Z,99614.42
2018-08-07T15:44:00.938Z,99619.19
2018-08-07T15:46:31.328Z,99618.96
2018-08-07T15:49:01.796Z,99612.27
2018-08-07T15:51:32.272Z,99610.45
2018-08-07T15:54:02.772Z,99612.84
2018-08-07T15:56:33.248Z,99614.81
2018-08-07T15:59:03.767Z,99613.98
2018-08-07T16:01:34.243Z,99611.33
2018-08-07T16:04:04.730Z,99611.48
2018-08-07T16:06:35.302Z,99618.31
2018-08-07T16:09:08.639Z,99619.48
2018-08-07T16:11:39.144Z,99622.02
2018-08-07T16:14:09.728Z,99619.37
2018-08-07T16:16:40.293Z,99615.58
2018-08-07T16:19:10.735Z,99620.50
2018-08-07T16:21:41.265Z,99619.97
2018-08-07T16:24:11.790Z,99621.34
2018-08-07T16:26:42.320Z,99624.71
2018-08-07T16:29:12.784Z,99629.91
2018-08-07T16:31:43.608Z,99632.98
2018-08-07T16:34:14.300Z,99636.20
2018-08-07T16:36:44.791Z,99638.37
2018-08-07T16:39:15.465Z,99641.67
2018-08-07T16:41:45.948Z,99646.50
2018-08-07T16:44:16.398Z,99648.39
2018-08-07T16:46:46.862Z,99653.71
2018-08-07T16:49:17.372Z,99652.69
2018-08-07T16:51:47.848Z,99654.06
2018-08-07T16:54:18.346Z,99650.59
2018-08-07T16:56:48.756Z,99651.86
2018-08-07T16:59:19.284Z,99647.29
2018-08-07T17:01:49.725Z,99650.41
2018-08-07T17:04:20.187Z,99556.56
2018-08-07T17:06:50.655Z,99668.41
2018-08-07T17:09:21.095Z,99671.74
2018-08-07T17:11:51.536Z,99677.73
2018-08-07T17:14:22.136Z,99674.08
2018-08-07T17:16:52.596Z,99674.31
2018-08-07T17:19:23.080Z,99673.75
2018-08-07T17:21:53.635Z,99680.02
2018-08-07T17:24:24.183Z,99685.73
2018-08-07T17:26:54.719Z,99682.70
2018-08-07T17:29:25.247Z,99683.73
2018-08-07T17:31:55.674Z,99694.07
2018-08-07T17:34:26.167Z,99694.76
2018-08-07T17:36:56.632Z,99701.84
2018-08-07T17:39:27.152Z,99695.17
2018-08-07T17:41:57.648Z,99699.97
2018-08-07T17:44:28.082Z,99697.38
2018-08-07T17:46:58.606Z,99693.06
2018-08-07T17:49:29.177Z,99697.95
2018-08-07T17:51:59.721Z,99696.23
2018-08-07T17:54:30.228Z,99695.43
2018-08-07T17:57:00.772Z,99704.98
2018-08-07T17:59:31.200Z,99709.84
2018-08-07T18:02:01.697Z,99709.55
2018-08-07T18:04:32.201Z,99720.20
2018-08-07T18:07:02.773Z,99723.87
2018-08-07T18:09:33.276Z,99723.73
2018-08-07T18:12:03.872Z,99729.62
2018-08-07T18:14:34.339Z,99728.25
2018-08-07T18:17:05.100Z,99721.91
2018-08-07T18:19:35.599Z,99732.53
2018-08-07T18:22:06.131Z,99745.66
2018-08-07T18:24:36.667Z,99747.89
2018-08-07T18:27:07.238Z,99748.10
2018-08-07T18:29:37.683Z,99746.61
2018-08-07T18:32:08.458Z,99746.02
2018-08-07T18:34:38.918Z,99739.67
2018-08-07T18:37:09.395Z,99749.48
2018-08-07T18:39:39.858Z,99758.27
2018-08-07T18:42:10.363Z,99755.06
2018-08-07T18:44:40.834Z,99755.34
2018-08-07T18:47:11.324Z,99653.36
2018-08-07T18:49:41.746Z,99771.23
2018-08-07T18:52:12.278Z,99770.64
2018-08-07T18:54:42.854Z,99769.48
2018-08-07T18:57:13.395Z,99772.11
2018-08-07T18:59:43.828Z,99777.36
2018-08-07T19:02:14.412Z,99779.23
2018-08-07T19:04:44.885Z,99773.33
2018-08-07T19:07:15.507Z,99784.56
2018-08-07T19:09:45.961Z,99777.38
2018-08-07T19:12:16.512Z,99774.59
2018-08-07T19:14:46.984Z,99774.48
2018-08-07T19:17:17.403Z,99769.77
2018-08-07T19:19:47.924Z,99774.37
2018-08-07T19:22:18.443Z,99773.70
2018-08-07T19:24:48.947Z,99762.93
2018-08-07T19:27:19.429Z,99765.60
2018-08-07T19:29:49.919Z,99771.66
2018-08-07T19:32:20.462Z,99769.95
2018-08-07T19:34:50.891Z,99772.94
2018-08-07T19:37:21.429Z,99773.28
2018-08-07T19:39:51.915Z,99776.66
2018-08-07T19:42:22.335Z,99776.66
2018-08-07T19:44:52.866Z,99776.79
2018-08-07T19:47:23.392Z,99777.72
2018-08-07T19:49:53.875Z,99780.97
2018-08-07T19:52:24.517Z,99782.83
2018-08-07T19:54:54.978Z,99779.11
2018-08-07T19:57:25.475Z,99777.05
2018-08-07T19:59:55.874Z,99773.55
2018-08-07T20:02:26.396Z,99769.84
2018-08-07T20:04:56.864Z,99773.08
2018-08-07T20:07:27.404Z,99778.19
2018-08-07T20:09:57.923Z,99780.47
2018-08-07T20:12:28.431Z,99778.86
2018-08-07T20:14:58.857Z,99777.00
2018-08-07T20:17:29.397Z,99776.78
2018-08-07T20:19:59.859Z,99775.84
2018-08-07T20:22:30.346Z,99771.08
2018-08-07T20:25:00.788Z,99775.48
2018-08-07T20:27:31.400Z,99770.59
2018-08-07T20:30:01.900Z,99777.41
2018-08-07T20:32:32.347Z,99774.74
2018-08-07T20:35:02.834Z,99770.94
2018-08-07T20:37:33.255Z,99672.20
2018-08-07T20:40:03.902Z,99779.97
2018-08-07T20:42:34.314Z,99777.77
2018-08-07T20:45:05.410Z,99774.74
2018-08-07T20:47:35.914Z,99774.17
2018-08-07T20:50:08.408Z,99781.46
2018-08-07T20:52:38.916Z,99786.44
2018-08-07T20:55:09.363Z,99784.11
2018-08-07T20:57:39.912Z,99792.45
2018-08-07T21:00:13.227Z,99805.88
2018-08-07T21:02:43.675Z,99804.09
2018-08-07T21:05:14.115Z,99799.93
2018-08-07T21:07:44.707Z,99808.16
2018-08-07T21:10:17.600Z,99816.36
2018-08-07T21:12:48.227Z,99815.53
2018-08-07T21:15:18.760Z,99818.33
2018-08-07T21:17:49.275Z,99818.33
2018-08-07T21:20:20.866Z,99812.55
2018-08-07T21:22:51.363Z,99817.08
2018-08-07T21:25:23.206Z,99826.27
2018-08-07T21:27:57.105Z,99826.08
2018-08-07T21:30:29.899Z,99838.11
2018-08-07T21:33:00.446Z,99835.09
2018-08-07T21:35:31.015Z,99837.84
2018-08-07T21:38:01.557Z,99842.43
2018-08-07T21:40:32.123Z,99846.48
2018-08-07T21:43:02.555Z,99850.10
2018-08-07T21:45:33.079Z,99846.48
2018-08-07T21:48:03.636Z,99844.73
2018-08-07T21:50:34.024Z,99847.77
2018-08-07T21:53:04.607Z,99845.66
2018-08-07T21:55:35.037Z,99853.52
2018-08-07T21:58:05.629Z,99861.02
2018-08-07T22:00:44.594Z,99865.86
2018-08-07T22:03:15.131Z,99866.73
2018-08-07T22:05:45.663Z,99866.63
2018-08-07T22:08:16.475Z,99864.17
2018-08-07T22:10:46.905Z,99865.89
2018-08-07T22:13:17.390Z,99860.45
2018-08-07T22:15:47.927Z,99861.28
2018-08-07T22:18:18.442Z,99864.72
2018-08-07T22:20:48.920Z,99862.64
2018-08-07T22:23:19.387Z,99854.42
2018-08-07T22:25:49.934Z,99853.28
2018-08-07T22:28:20.456Z,99853.94
2018-08-07T22:30:50.932Z,99851.27
2018-08-07T22:33:21.427Z,99854.02
2018-08-07T22:35:51.854Z,99859.53
2018-08-07T22:38:22.278Z,99859.78
2018-08-07T22:40:52.743Z,99860.92
2018-08-07T22:43:23.344Z,99854.41
2018-08-07T22:45:53.804Z,99856.27
2018-08-07T22:48:24.444Z,99857.66
2018-08-07T22:50:54.844Z,99856.05
2018-08-07T22:53:25.283Z,99849.65
2018-08-07T22:55:55.712Z,99852.25
2018-08-07T22:58:26.232Z,99855.68
2018-08-07T23:00:56.759Z,99866.09
2018-08-07T23:03:27.256Z,99864.65
2018-08-07T23:05:57.743Z,99865.34
2018-08-07T23:08:28.235Z,99863.22
2018-08-07T23:10:58.600Z,99863.04
2018-08-07T23:13:29.112Z,99857.72
2018-08-07T23:15:59.514Z,99864.92
2018-08-07T23:18:29.961Z,99864.82
2018-08-07T23:21:00.443Z,99861.49
2018-08-07T23:23:30.918Z,99866.56
2018-08-07T23:26:01.334Z,99861.23
2018-08-07T23:28:31.754Z,99859.95
2018-08-07T23:31:02.309Z,99860.86
2018-08-07T23:33:32.784Z,99862.24
2018-08-07T23:36:03.298Z,99855.73
2018-08-07T23:38:33.696Z,99865.54
2018-08-07T23:41:04.167Z,99861.87
2018-08-07T23:43:34.610Z,99866.19
2018-08-07T23:46:05.078Z,99866.55
2018-08-07T23:48:35.641Z,99863.00
2018-08-07T23:51:06.115Z,99865.86
2018-08-07T23:53:36.586Z,99867.93
2018-08-07T23:56:07.306Z,99864.25
2018-08-07T23:58:37.748Z,99868.97
